Time;durP1;ratioP1;P1;durP2;ratioP2;P2;SDS_P1;SDS_P2;PMS_P1;PMS_P2;Temp;Humidity;BMP_temperature;BMP_pressure;BME280_temperature;BME280_humidity;BME280_pressure;Samples;Min_cycle;Max_cycle;Signal;HPM_P1;HPM_P2
2023/06/04 00:01:05;;;;;;;5.38;3.20;;;9.50;99.90;;;;;;5047302;28;20080;-78
2023/06/04 00:03:31;;;;;;;6.07;3.40;;;9.40;99.90;;;;;;5044302;28;20450;-78
2023/06/04 00:05:57;;;;;;;6.55;3.30;;;9.40;99.90;;;;;;5069489;28;20074;-78
2023/06/04 00:08:23;;;;;;;4.63;3.13;;;9.40;99.90;;;;;;5050675;28;20073;-78
2023/06/04 00:10:50;;;;;;;4.18;3.40;;;9.30;99.90;;;;;;5025481;28;20033;-79
2023/06/04 00:13:15;;;;;;;3.88;3.25;;;9.30;99.90;;;;;;5053137;28;20046;-78
2023/06/04 00:15:41;;;;;;;4.97;3.28;;;9.20;99.90;;;;;;5045050;28;20123;-78
2023/06/04 00:18:07;;;;;;;4.22;3.10;;;9.20;99.90;;;;;;5070540;28;20036;-79
2023/06/04 00:20:33;;;;;;;3.58;3.05;;;9.20;99.90;;;;;;5070846;28;20109;-78
2023/06/04 00:22:59;;;;;;;6.13;3.60;;;9.20;99.90;;;;;;5081549;28;20032;-78
2023/06/04 00:25:25;;;;;;;5.60;3.38;;;9.20;99.90;;;;;;5053448;28;20482;-79
2023/06/04 00:27:51;;;;;;;5.22;3.47;;;9.10;99.90;;;;;;5053443;28;20047;-78
2023/06/04 00:30:17;;;;;;;4.30;3.33;;;9.10;99.90;;;;;;5070753;28;20098;-78
2023/06/04 00:32:43;;;;;;;5.47;3.80;;;9.10;99.90;;;;;;5052859;28;20753;-79
2023/06/04 00:35:09;;;;;;;5.45;3.47;;;9.10;99.90;;;;;;5052847;28;20040;-78
2023/06/04 00:37:35;;;;;;;5.15;3.72;;;9.10;99.90;;;;;;5053425;28;20043;-78
2023/06/04 00:40:05;;;;;;;7.10;4.40;;;9.20;99.90;;;;;;5070405;28;20040;-78
2023/06/04 00:42:31;;;;;;;6.63;4.50;;;9.20;99.90;;;;;;5052419;28;20128;-79
2023/06/04 00:44:58;;;;;;;4.82;3.90;;;9.30;99.90;;;;;;5068175;28;20048;-79
2023/06/04 00:47:23;;;;;;;5.15;3.80;;;9.30;99.90;;;;;;5053398;28;20123;-78
2023/06/04 00:49:50;;;;;;;6.13;4.90;;;9.20;99.90;;;;;;5053097;28;20124;-78
2023/06/04 00:52:16;;;;;;;6.78;4.50;;;9.20;99.90;;;;;;5053553;28;20549;-78
2023/06/04 00:54:42;;;;;;;7.70;4.32;;;9.10;99.90;;;;;;5068827;28;20032;-78
2023/06/04 00:57:10;;;;;;;6.57;4.32;;;8.90;99.90;;;;;;5053420;28;20101;-78
2023/06/04 00:59:38;;;;;;;6.70;4.80;;;8.90;99.90;;;;;;5053597;28;20144;-78
2023/06/04 01:02:07;;;;;;;6.18;4.20;;;8.80;99.90;;;;;;5050851;28;20048;-78
2023/06/04 01:04:51;;;;;;;5.70;4.90;;;8.80;99.90;;;;;;5052016;28;20067;-78
2023/06/04 01:07:17;;;;;;;;;;;8.80;99.90;;;;;;5048107;28;20052;-79
2023/06/04 01:09:45;;;;;;;6.28;4.60;;;8.70;99.90;;;;;;5086976;28;19963;-78
2023/06/04 01:12:11;;;;;;;7.03;4.68;;;8.70;99.90;;;;;;5052096;28;20158;-78
2023/06/04 01:14:37;;;;;;;8.77;5.95;;;8.60;99.90;;;;;;5061374;28;20101;-78
2023/06/04 01:17:13;;;;;;;5.93;5.05;;;8.60;99.90;;;;;;5048675;28;20041;-78
2023/06/04 01:20:28;;;;;;;6.85;5.47;;;8.50;99.90;;;;;;5053160;28;20510;-79
2023/06/04 01:22:56;;;;;;;6.40;5.18;;;8.40;99.90;;;;;;5052669;28;20423;-79
2023/06/04 01:25:41;;;;;;;6.82;5.65;;;8.30;99.90;;;;;;5053340;28;20041;-78
2023/06/04 01:28:10;;;;;;;8.15;5.13;;;8.30;99.90;;;;;;5068326;28;20062;-78
2023/06/04 01:30:45;;;;;;;6.88;5.65;;;8.10;99.90;;;;;;5052760;28;20272;-78
2023/06/04 01:33:17;;;;;;;7.85;5.40;;;8.10;99.90;;;;;;5052806;28;20564;-79
2023/06/04 01:35:43;;;;;;;11.00;6.80;;;8.10;99.90;;;;;;5075016;28;20040;-79
2023/06/04 01:38:09;;;;;;;8.43;5.80;;;8.00;99.90;;;;;;5051906;28;20395;-78
2023/06/04 01:40:40;;;;;;;8.60;5.72;;;8.00;99.90;;;;;;5045836;28;20394;-78
2023/06/04 01:43:07;;;;;;;7.68;6.03;;;7.90;99.90;;;;;;5053309;28;20036;-78
2023/06/04 01:45:35;;;;;;;8.25;7.00;;;7.80;99.90;;;;;;5056457;28;20471;-78
2023/06/04 01:48:03;;;;;;;9.75;6.45;;;7.80;99.90;;;;;;5055587;28;20040;-78
2023/06/04 01:50:30;;;;;;;8.18;5.60;;;7.80;99.90;;;;;;5057029;28;20044;-78
2023/06/04 01:52:56;;;;;;;7.22;6.53;;;7.70;99.90;;;;;;5055313;28;20047;-78
2023/06/04 01:55:29;;;;;;;8.35;6.68;;;7.60;99.90;;;;;;5056736;28;20501;-78
2023/06/04 01:57:57;;;;;;;9.73;7.78;;;7.60;99.90;;;;;;5056427;28;20036;-78
2023/06/04 02:00:23;;;;;;;9.90;6.97;;;7.50;99.90;;;;;;5056807;28;20119;-78
2023/06/04 02:02:49;;;;;;;7.22;6.53;;;7.50;99.90;;;;;;5055380;28;20115;-78
2023/06/04 02:05:15;;;;;;;9.25;7.50;;;7.40;99.90;;;;;;5055468;28;20036;-78
2023/06/04 02:07:45;;;;;;;10.23;7.65;;;7.40;99.90;;;;;;5057200;28;20049;-78
2023/06/04 02:10:16;;;;;;;8.35;7.10;;;7.40;99.90;;;;;;5056456;28;20045;-78
2023/06/04 02:13:02;;;;;;;8.23;7.22;;;7.40;99.90;;;;;;5061006;22;20033;-77
2023/06/04 02:15:29;;;;;;;7.88;6.55;;;7.30;99.90;;;;;;5024760;28;20096;-78
2023/06/04 02:18:00;;;;;;;10.32;8.13;;;7.30;99.90;;;;;;5036953;28;20375;-77
2023/06/04 02:20:27;;;;;;;9.02;7.80;;;7.20;99.90;;;;;;5048742;28;20554;-77
2023/06/04 02:22:57;;;;;;;10.45;8.02;;;7.20;99.90;;;;;;5044090;28;20069;-77
2023/06/04 02:25:23;;;;;;;8.93;8.02;;;7.20;99.90;;;;;;5021596;28;20046;-77
2023/06/04 02:27:49;;;;;;;10.18;8.70;;;7.10;99.90;;;;;;4996572;28;20555;-77
2023/06/04 02:30:16;;;;;;;9.65;8.43;;;7.10;99.90;;;;;;4996745;28;20129;-77
2023/06/04 02:32:44;;;;;;;9.13;8.20;;;7.10;99.90;;;;;;4986043;28;20037;-77
2023/06/04 02:35:10;;;;;;;13.77;9.07;;;7.00;99.90;;;;;;5020943;28;20491;-77
2023/06/04 02:37:35;;;;;;;13.88;10.68;;;7.00;99.90;;;;;;5019419;28;20294;-77
2023/06/04 02:40:01;;;;;;;11.40;8.82;;;7.00;99.90;;;;;;5019642;28;20617;-77
2023/06/04 02:42:27;;;;;;;11.00;9.05;;;6.90;99.90;;;;;;5029939;28;20041;-77
2023/06/04 02:44:52;;;;;;;12.25;10.50;;;6.90;99.90;;;;;;5006388;28;20131;-77
2023/06/04 02:47:19;;;;;;;12.70;10.77;;;6.90;99.90;;;;;;5021898;28;20388;-78
2023/06/04 02:49:46;;;;;;;11.68;10.43;;;6.80;99.90;;;;;;5010771;28;20041;-77
2023/06/04 02:52:11;;;;;;;10.82;9.48;;;6.80;99.90;;;;;;5034228;28;20049;-77
2023/06/04 02:54:37;;;;;;;11.63;9.88;;;6.80;99.90;;;;;;5023688;28;20068;-77
2023/06/04 02:57:03;;;;;;;13.82;10.38;;;6.80;99.90;;;;;;5016069;28;20566;-77
2023/06/04 02:59:29;;;;;;;15.05;13.07;;;6.70;99.90;;;;;;5015584;28;20121;-77
2023/06/04 03:01:55;;;;;;;15.05;12.95;;;6.70;99.90;;;;;;5026874;28;20115;-77
2023/06/04 03:04:20;;;;;;;15.23;11.38;;;6.70;99.90;;;;;;5002178;28;20092;-77
2023/06/04 03:06:47;;;;;;;15.38;11.77;;;6.70;99.90;;;;;;5015421;28;20482;-77
2023/06/04 03:09:12;;;;;;;23.48;18.48;;;6.60;99.90;;;;;;5032467;28;20050;-77
2023/06/04 03:11:38;;;;;;;16.58;12.85;;;6.70;99.90;;;;;;5028639;28;20037;-77
2023/06/04 03:14:04;;;;;;;23.60;18.00;;;6.70;99.90;;;;;;5011547;28;20044;-77
2023/06/04 03:16:29;;;;;;;25.83;20.40;;;6.70;99.90;;;;;;5019354;28;20091;-77
2023/06/04 03:18:56;;;;;;;19.35;15.77;;;6.80;99.90;;;;;;5015537;28;20045;-78
2023/06/04 03:21:22;;;;;;;17.48;14.60;;;6.80;99.90;;;;;;5018277;28;20499;-77
2023/06/04 03:23:48;;;;;;;18.77;16.75;;;6.90;99.90;;;;;;5039809;28;20049;-77
2023/06/04 03:26:13;;;;;;;17.33;15.48;;;6.80;99.90;;;;;;5026927;28;20044;-77
2023/06/04 03:28:40;;;;;;;18.42;16.48;;;6.80;99.90;;;;;;5051871;28;20076;-77
2023/06/04 03:31:05;;;;;;;15.80;14.15;;;6.90;99.90;;;;;;5032588;28;20041;-77
2023/06/04 03:33:31;;;;;;;17.10;14.35;;;6.90;99.90;;;;;;5027944;28;20045;-77
2023/06/04 03:35:59;;;;;;;17.98;16.10;;;6.90;99.90;;;;;;4995940;28;20049;-77
2023/06/04 03:38:28;;;;;;;15.55;13.88;;;6.90;99.90;;;;;;5011073;28;20415;-77
2023/06/04 03:40:54;;;;;;;19.73;16.33;;;6.90;99.90;;;;;;5031758;28;20404;-78
2023/06/04 03:43:20;;;;;;;20.60;17.50;;;6.90;99.90;;;;;;5028886;28;20039;-77
2023/06/04 03:45:46;;;;;;;20.60;17.98;;;6.90;99.90;;;;;;4998736;28;20068;-77
2023/06/04 03:48:11;;;;;;;23.85;20.38;;;6.90;99.90;;;;;;4998363;28;20065;-77
2023/06/04 03:50:37;;;;;;;23.65;18.20;;;6.90;99.90;;;;;;5014725;28;20030;-77
2023/06/04 03:53:06;;;;;;;15.73;14.07;;;6.90;99.90;;;;;;5014816;28;20137;-77
2023/06/04 03:55:32;;;;;;;17.55;15.07;;;6.90;99.90;;;;;;5022345;28;20118;-77
2023/06/04 03:57:58;;;;;;;15.85;14.00;;;6.90;99.90;;;;;;5013843;28;20084;-77
2023/06/04 04:00:24;;;;;;;22.13;19.15;;;6.90;99.90;;;;;;5031308;28;20044;-77
2023/06/04 04:02:49;;;;;;;17.95;16.15;;;6.90;99.90;;;;;;5030090;28;20041;-77
2023/06/04 04:05:15;;;;;;;21.85;19.58;;;7.00;99.90;;;;;;5022889;28;20402;-77
2023/06/04 04:07:41;;;;;;;18.30;15.73;;;7.00;99.90;;;;;;5014564;28;20100;-77
2023/06/04 04:10:07;;;;;;;26.10;21.52;;;7.00;99.90;;;;;;4996642;28;20047;-77
2023/06/04 04:12:33;;;;;;;18.73;16.67;;;7.10;99.90;;;;;;5015711;28;20124;-77
2023/06/04 04:14:58;;;;;;;20.88;18.67;;;7.10;99.90;;;;;;5006272;28;20112;-77
2023/06/04 04:17:24;;;;;;;28.75;23.45;;;7.20;99.90;;;;;;5013938;28;20476;-77
2023/06/04 04:19:50;;;;;;;22.92;20.13;;;7.30;99.90;;;;;;5014515;28;20041;-77
2023/06/04 04:22:17;;;;;;;20.80;18.25;;;7.30;99.90;;;;;;5014408;28;20120;-77
2023/06/04 04:24:43;;;;;;;19.80;17.80;;;7.50;99.90;;;;;;5007069;28;20124;-77
2023/06/04 04:27:10;;;;;;;21.15;18.00;;;7.80;99.90;;;;;;5013273;28;20037;-77
2023/06/04 04:29:36;;;;;;;23.40;17.70;;;8.40;99.90;;;;;;4989364;28;20084;-77
2023/06/04 04:32:10;;;;;;;17.10;14.25;;;9.10;99.90;;;;;;5014268;28;20072;-77
2023/06/04 04:34:40;;;;;;;15.30;12.48;;;9.70;99.90;;;;;;4997520;28;20038;-78
2023/06/04 04:37:08;;;;;;;16.42;12.50;;;10.30;99.90;;;;;;5014329;28;20411;-77
2023/06/04 04:39:34;;;;;;;19.77;11.75;;;10.90;99.90;;;;;;5028468;28;20079;-77
2023/06/04 04:42:00;;;;;;;13.65;10.35;;;11.40;99.90;;;;;;5030889;28;20472;-78
2023/06/04 04:44:26;;;;;;;12.57;9.63;;;11.90;99.90;;;;;;5029779;28;20077;-78
2023/06/04 04:46:51;;;;;;;12.45;8.77;;;12.30;99.90;;;;;;5024695;28;20056;-77
2023/06/04 04:49:17;;;;;;;12.60;8.85;;;12.60;99.90;;;;;;5017345;28;20041;-77
2023/06/04 04:51:42;;;;;;;12.45;8.00;;;12.90;99.90;;;;;;5005787;28;20033;-78
2023/06/04 04:54:08;;;;;;;12.13;7.82;;;13.10;99.90;;;;;;5013969;28;20088;-78
2023/06/04 04:56:34;;;;;;;11.77;7.32;;;13.40;99.90;;;;;;5013836;28;20034;-77
2023/06/04 04:59:00;;;;;;;12.88;7.95;;;13.50;99.90;;;;;;5019368;28;20053;-78
2023/06/04 05:01:25;;;;;;;11.98;7.70;;;13.60;99.90;;;;;;5029501;28;20033;-77
2023/06/04 05:03:51;;;;;;;11.15;7.35;;;13.80;99.90;;;;;;5025592;28;20815;-77
2023/06/04 05:06:17;;;;;;;10.32;7.72;;;14.10;99.90;;;;;;5012475;28;20053;-78
2023/06/04 05:08:43;;;;;;;11.70;6.82;;;14.40;99.90;;;;;;5021513;28;20511;-78
2023/06/04 05:11:09;;;;;;;9.88;7.35;;;14.70;99.90;;;;;;5007710;28;20034;-77
2023/06/04 05:13:34;;;;;;;10.48;6.72;;;15.10;99.90;;;;;;5014700;28;20495;-78
2023/06/04 05:16:06;;;;;;;11.90;6.88;;;15.20;99.90;;;;;;5016533;28;20148;-78
2023/06/04 05:18:40;;;;;;;9.38;7.22;;;15.30;99.90;;;;;;5017300;28;20156;-77
2023/06/04 05:21:06;;;;;;;9.02;6.63;;;15.60;99.90;;;;;;5017103;28;20045;-77
2023/06/04 05:23:34;;;;;;;11.93;6.50;;;15.80;99.90;;;;;;5033752;28;20041;-77
2023/06/04 05:26:01;;;;;;;11.00;6.30;;;16.00;99.90;;;;;;5025731;28;20491;-78
2023/06/04 05:28:27;;;;;;;9.07;6.30;;;16.20;99.90;;;;;;5019848;28;20033;-78
2023/06/04 05:30:58;;;;;;;8.27;5.95;;;16.30;99.90;;;;;;5016411;28;20087;-77
2023/06/04 05:33:25;;;;;;;10.48;6.30;;;16.70;99.90;;;;;;5013450;28;20068;-78
2023/06/04 05:35:54;;;;;;;11.55;6.20;;;17.00;99.90;;;;;;5027561;28;20250;-77
2023/06/04 05:38:20;;;;;;;10.70;6.10;;;17.10;99.90;;;;;;5030880;28;20880;-77
2023/06/04 05:40:46;;;;;;;9.38;6.05;;;17.30;99.90;;;;;;5019709;28;20037;-78
2023/06/04 05:43:12;;;;;;;9.90;6.50;;;17.40;99.90;;;;;;5017685;28;20128;-78
2023/06/04 05:45:37;;;;;;;11.70;6.43;;;17.30;99.90;;;;;;5016931;28;20068;-78
2023/06/04 05:48:04;;;;;;;11.57;6.68;;;17.10;99.90;;;;;;5000351;28;20107;-78
2023/06/04 05:50:30;;;;;;;11.65;6.72;;;17.00;99.90;;;;;;5000100;28;20037;-77
2023/06/04 05:52:56;;;;;;;9.88;6.60;;;17.00;99.90;;;;;;5031874;28;20041;-77
2023/06/04 05:55:22;;;;;;;10.48;7.05;;;17.00;99.90;;;;;;5015623;28;20124;-77
2023/06/04 05:57:48;;;;;;;11.75;7.70;;;16.50;99.90;;;;;;4991826;28;20041;-78
2023/06/04 06:00:14;;;;;;;8.60;6.32;;;16.20;99.90;;;;;;5018155;28;20033;-77
2023/06/04 06:02:40;;;;;;;12.18;7.30;;;15.90;99.90;;;;;;5017204;28;20091;-77
2023/06/04 06:05:09;;;;;;;10.23;7.20;;;15.70;99.90;;;;;;5004738;28;20045;-78
2023/06/04 06:07:35;;;;;;;12.57;7.35;;;15.40;99.90;;;;;;5035616;28;20047;-77
2023/06/04 06:10:01;;;;;;;11.48;7.28;;;15.10;99.90;;;;;;5015941;28;20115;-77
2023/06/04 06:12:27;;;;;;;12.98;8.02;;;14.80;99.90;;;;;;5019608;28;20034;-77
2023/06/04 06:14:52;;;;;;;9.07;7.15;;;14.60;99.90;;;;;;5032723;28;20041;-78
2023/06/04 06:17:18;;;;;;;14.15;8.38;;;14.50;99.90;;;;;;5021472;28;20496;-78
2023/06/04 06:19:44;;;;;;;13.63;7.60;;;14.30;99.90;;;;;;5024161;28;20041;-77
2023/06/04 06:22:10;;;;;;;13.35;7.95;;;14.20;99.90;;;;;;5019550;28;20042;-77
2023/06/04 06:24:36;;;;;;;10.70;7.28;;;14.20;99.90;;;;;;5016325;28;20095;-77
2023/06/04 06:27:01;;;;;;;11.43;7.00;;;14.10;99.90;;;;;;5016406;28;20041;-78
2023/06/04 06:29:27;;;;;;;11.43;6.95;;;14.10;99.90;;;;;;5016292;28;20080;-77
2023/06/04 06:31:52;;;;;;;12.57;7.63;;;14.10;99.90;;;;;;5032541;28;20037;-77
2023/06/04 06:34:18;;;;;;;9.65;6.88;;;14.20;99.90;;;;;;4999981;28;20041;-78
2023/06/04 06:36:44;;;;;;;11.27;7.10;;;14.20;99.90;;;;;;5017825;28;20049;-77
2023/06/04 06:39:10;;;;;;;10.20;6.65;;;14.20;99.90;;;;;;5015407;28;20488;-77
2023/06/04 06:41:38;;;;;;;9.70;6.22;;;14.30;99.90;;;;;;4999905;28;20040;-77
2023/06/04 06:44:04;;;;;;;9.77;5.95;;;14.40;99.90;;;;;;5028584;28;20072;-77
2023/06/04 06:46:29;;;;;;;10.73;6.30;;;14.40;99.90;;;;;;5000453;28;20496;-77
2023/06/04 06:48:55;;;;;;;9.40;5.90;;;14.40;99.90;;;;;;5009099;28;20119;-77
2023/06/04 06:51:20;;;;;;;11.30;5.15;;;14.50;99.90;;;;;;5044880;28;20053;-77
2023/06/04 06:53:46;;;;;;;7.82;4.78;;;14.60;99.90;;;;;;5034014;28;20041;-77
2023/06/04 06:56:13;;;;;;;6.50;4.20;;;14.60;99.90;;;;;;5020438;28;20142;-77
2023/06/04 06:58:39;;;;;;;7.75;4.47;;;14.70;99.90;;;;;;4999971;28;20041;-77
2023/06/04 07:01:05;;;;;;;8.30;4.72;;;14.90;99.90;;;;;;5015994;28;20112;-78
2023/06/04 07:03:31;;;;;;;10.00;4.65;;;14.90;99.90;;;;;;4997681;28;20045;-79
2023/06/04 07:05:57;;;;;;;7.35;4.35;;;15.00;99.90;;;;;;5027498;28;20415;-78
2023/06/04 07:08:22;;;;;;;9.88;5.03;;;15.10;99.90;;;;;;5019383;28;20324;-78
2023/06/04 07:10:48;;;;;;;9.88;5.07;;;15.20;99.90;;;;;;5035575;28;20072;-78
2023/06/04 07:13:13;;;;;;;9.02;4.78;;;15.20;99.90;;;;;;5015027;28;20037;-78
2023/06/04 07:15:39;;;;;;;8.90;4.93;;;15.30;99.90;;;;;;5019283;28;20071;-77
2023/06/04 07:18:05;;;;;;;8.25;4.95;;;15.30;99.90;;;;;;5029997;28;20503;-77
2023/06/04 07:20:30;;;;;;;7.95;4.68;;;15.40;99.90;;;;;;5016657;28;20080;-78
2023/06/04 07:22:56;;;;;;;8.63;5.55;;;15.50;99.90;;;;;;5019236;28;20033;-77
2023/06/04 07:25:23;;;;;;;6.57;4.35;;;15.50;99.90;;;;;;5012250;28;20037;-78
2023/06/04 07:27:50;;;;;;;10.40;4.40;;;15.70;99.90;;;;;;5016494;28;20443;-77
2023/06/04 07:30:22;;;;;;;8.02;3.85;;;15.70;99.90;;;;;;5023001;28;20049;-77
2023/06/04 07:32:49;;;;;;;7.85;4.15;;;15.60;99.90;;;;;;5017335;28;20399;-77
2023/06/04 07:35:19;;;;;;;8.90;4.18;;;15.70;99.90;;;;;;5023728;28;20037;-77
2023/06/04 07:37:48;;;;;;;8.15;4.10;;;15.80;99.90;;;;;;5023848;28;20048;-77
2023/06/04 07:40:28;;;;;;;8.88;4.28;;;16.00;99.90;;;;;;4995999;28;20045;-77
2023/06/04 07:43:06;;;;;;;9.55;4.00;;;16.10;99.90;;;;;;5018087;28;20034;-77
2023/06/04 07:45:38;;;;;;;7.20;3.67;;;16.40;99.90;;;;;;5039427;28;20073;-78
2023/06/04 07:48:06;;;;;;;6.30;3.28;;;17.00;99.90;;;;;;5026194;28;20048;-81
2023/06/04 07:50:34;;;;;;;5.78;3.55;;;17.70;99.90;;;;;;5030128;28;20045;-80
2023/06/04 07:53:00;;;;;;;7.13;3.05;;;18.40;99.90;;;;;;5023496;28;20047;-80
2023/06/04 07:55:26;;;;;;;7.82;3.20;;;19.00;94.80;;;;;;5016181;28;20042;-81
2023/06/04 07:57:51;;;;;;;7.65;2.97;;;19.60;85.90;;;;;;5032149;28;20471;-81
2023/06/04 08:00:17;;;;;;;5.30;2.65;;;20.00;81.70;;;;;;5026355;28;20060;-81
2023/06/04 08:02:43;;;;;;;5.95;2.67;;;20.40;81.20;;;;;;5006914;28;20127;-82
2023/06/04 08:05:09;;;;;;;6.57;2.80;;;21.00;74.70;;;;;;5024244;28;20038;-79
2023/06/04 08:07:35;;;;;;;6.63;2.70;;;21.20;72.70;;;;;;5016133;28;20041;-79
2023/06/04 08:10:01;;;;;;;5.03;2.38;;;21.50;68.60;;;;;;5033344;28;20461;-80
2023/06/04 08:12:28;;;;;;;9.45;2.85;;;21.70;65.90;;;;;;5067452;22;20096;-80
2023/06/04 08:14:57;;;;;;;5.10;2.10;;;21.90;64.20;;;;;;5035089;28;20045;-80
2023/06/04 08:17:26;;;;;;;5.32;2.20;;;21.90;64.40;;;;;;5018822;28;20044;-80
2023/06/04 08:20:06;;;;;;;5.90;2.38;;;22.10;63.20;;;;;;5023991;28;20037;-80
2023/06/04 08:22:40;;;;;;;5.63;2.50;;;22.20;62.50;;;;;;5028388;28;20066;-79
2023/06/04 08:25:07;;;;;;;4.75;2.38;;;22.20;62.10;;;;;;5028792;28;20048;-79
2023/06/04 08:27:33;;;;;;;4.68;2.30;;;22.50;64.80;;;;;;5034117;28;20052;-80
2023/06/04 08:30:02;;;;;;;5.22;2.47;;;23.10;64.30;;;;;;5019103;28;20048;-81
2023/06/04 08:32:32;;;;;;;3.92;1.88;;;23.60;60.00;;;;;;5023866;28;20131;-80
2023/06/04 08:35:15;;;;;;;4.75;2.00;;;23.70;61.10;;;;;;5029024;28;20041;-80
2023/06/04 08:37:44;;;;;;;5.65;1.85;;;24.00;58.00;;;;;;5005488;28;20060;-81
2023/06/04 08:40:39;;;;;;;;;;;;;;;;;;;;;
2023/06/04 08:43:11;;;;;;;3.80;2.03;;;24.10;57.00;;;;;;5032516;28;20118;-80
2023/06/04 08:45:48;;;;;;;4.85;2.30;;;24.20;55.00;;;;;;5036946;28;20553;-81
2023/06/04 08:48:21;;;;;;;3.58;1.80;;;24.10;54.20;;;;;;5032926;28;20037;-80
2023/06/04 08:50:53;;;;;;;4.80;2.10;;;24.10;53.70;;;;;;5057451;28;20568;-80
2023/06/04 08:53:25;;;;;;;3.95;1.83;;;24.10;52.70;;;;;;5040283;28;20799;-80
2023/06/04 08:55:57;;;;;;;4.10;2.00;;;23.90;51.90;;;;;;5061927;28;20095;-79
2023/06/04 08:58:25;;;;;;;4.05;1.80;;;23.50;54.10;;;;;;5046123;28;20040;-79
2023/06/04 09:00:51;;;;;;;5.18;2.05;;;23.60;55.00;;;;;;5036650;28;20100;-79
2023/06/04 09:03:19;;;;;;;4.65;2.25;;;23.90;55.50;;;;;;5026516;28;20071;-79
2023/06/04 09:05:51;;;;;;;4.63;1.83;;;24.10;53.90;;;;;;5044640;28;20109;-80
2023/06/04 09:08:18;;;;;;;4.63;2.07;;;24.20;52.20;;;;;;5058334;28;20085;-80
2023/06/04 09:10:46;;;;;;;4.10;1.65;;;24.10;52.80;;;;;;5037261;28;20037;-78
2023/06/04 09:13:17;;;;;;;6.07;2.10;;;24.10;53.90;;;;;;5021403;28;20048;-79
2023/06/04 09:15:43;;;;;;;4.30;1.73;;;24.20;55.50;;;;;;5014587;28;20049;-79
2023/06/04 09:18:09;;;;;;;30.85;3.63;;;24.40;55.20;;;;;;5016933;28;20218;-79
2023/06/04 09:20:35;;;;;;;3.70;1.95;;;24.70;54.00;;;;;;5013788;28;20076;-79
2023/06/04 09:23:00;;;;;;;4.43;1.98;;;25.00;51.10;;;;;;4997828;28;20033;-78
2023/06/04 09:25:27;;;;;;;5.30;1.83;;;25.20;49.10;;;;;;5006615;28;20041;-78
2023/06/04 09:28:05;;;;;;;4.68;1.50;;;25.10;50.20;;;;;;5014834;28;20483;-79
2023/06/04 09:30:31;;;;;;;3.70;1.90;;;25.00;51.50;;;;;;5017694;28;20045;-78
2023/06/04 09:33:09;;;;;;;3.65;1.75;;;24.90;51.30;;;;;;5017071;28;20451;-79
2023/06/04 09:35:35;;;;;;;4.30;1.70;;;25.10;51.30;;;;;;5011475;28;20041;-78
2023/06/04 09:38:02;;;;;;;2.40;1.50;;;25.20;50.50;;;;;;5009721;28;20128;-79
2023/06/04 09:40:38;;;;;;;3.53;1.50;;;25.30;49.50;;;;;;5028841;28;20037;-79
2023/06/04 09:43:03;;;;;;;4.93;1.65;;;25.50;50.10;;;;;;5033571;28;20047;-79
2023/06/04 09:45:35;;;;;;;4.35;1.60;;;25.70;50.70;;;;;;5020071;28;20040;-79
2023/06/04 09:48:02;;;;;;;6.28;1.92;;;26.10;49.50;;;;;;5001225;28;20050;-78
2023/06/04 09:50:36;;;;;;;4.28;1.70;;;26.10;50.50;;;;;;5017220;28;20089;-80
2023/06/04 09:53:16;;;;;;;4.82;2.13;;;26.40;49.20;;;;;;5006060;28;20084;-79
2023/06/04 09:55:42;;;;;;;4.60;1.65;;;26.60;46.80;;;;;;5010925;28;20533;-78
2023/06/04 09:58:11;;;;;;;3.90;1.65;;;26.20;48.80;;;;;;5016584;28;20043;-79
2023/06/04 10:00:37;;;;;;;3.70;1.77;;;26.20;48.90;;;;;;5011590;28;20037;-79
2023/06/04 10:03:04;;;;;;;5.15;1.88;;;26.50;50.80;;;;;;5020146;28;20119;-80
2023/06/04 10:05:39;;;;;;;4.60;1.70;;;27.10;47.50;;;;;;5035835;28;20033;-80
2023/06/04 10:08:07;;;;;;;5.13;1.90;;;27.50;44.60;;;;;;5017978;28;20521;-79
2023/06/04 10:10:38;;;;;;;3.80;1.77;;;27.00;45.50;;;;;;5013171;28;20041;-79
2023/06/04 10:13:17;;;;;;;3.13;1.63;;;26.90;47.20;;;;;;5020880;28;20042;-78
2023/06/04 10:15:44;;;;;;;3.75;1.60;;;26.90;44.70;;;;;;5026305;28;20044;-78
2023/06/04 10:18:10;;;;;;;6.70;1.70;;;26.60;46.40;;;;;;5031609;28;20388;-79
2023/06/04 10:20:38;;;;;;;3.17;1.77;;;26.60;47.10;;;;;;5033492;28;20048;-79
2023/06/04 10:23:04;;;;;;;3.42;1.60;;;27.10;47.60;;;;;;5036571;28;20045;-79
2023/06/04 10:25:30;;;;;;;5.45;1.77;;;27.40;44.60;;;;;;5034325;28;20384;-79
2023/06/04 10:27:56;;;;;;;4.88;2.00;;;27.50;43.20;;;;;;5049987;28;20508;-79
2023/06/04 10:30:22;;;;;;;2.97;1.55;;;27.50;42.20;;;;;;5035361;28;20543;-79
2023/06/04 10:32:50;;;;;;;4.32;1.88;;;27.60;41.50;;;;;;5053063;28;20048;-79
2023/06/04 10:35:16;;;;;;;4.15;1.80;;;27.30;42.70;;;;;;5033831;28;20045;-78
2023/06/04 10:37:42;;;;;;;4.10;1.60;;;27.10;43.60;;;;;;5029059;28;20043;-79
2023/06/04 10:40:08;;;;;;;4.28;2.38;;;27.00;44.30;;;;;;5032226;28;20383;-79
2023/06/04 10:42:42;;;;;;;4.40;1.92;;;27.00;43.50;;;;;;5016362;28;20136;-78
2023/06/04 10:45:11;;;;;;;5.00;2.00;;;26.80;45.80;;;;;;5034281;28;20040;-79
2023/06/04 10:47:40;;;;;;;3.28;1.50;;;27.20;42.70;;;;;;5026662;28;20045;-79
2023/06/04 10:50:14;;;;;;;4.38;1.92;;;27.10;45.90;;;;;;5032477;28;20048;-78
2023/06/04 10:52:55;;;;;;;3.80;1.60;;;27.30;45.50;;;;;;5017909;28;20053;-80
2023/06/04 10:55:21;;;;;;;4.38;1.95;;;27.80;43.50;;;;;;5032739;28;20045;-80
2023/06/04 10:58:01;;;;;;;2.88;1.60;;;27.80;42.60;;;;;;5028252;28;20034;-79
2023/06/04 11:00:49;;;;;;;4.25;1.58;;;27.30;44.50;;;;;;5052757;28;20041;-79
2023/06/04 11:03:16;;;;;;;4.00;1.70;;;27.30;45.00;;;;;;5035367;28;20041;-80
2023/06/04 11:05:44;;;;;;;3.50;1.38;;;27.60;43.20;;;;;;5034192;28;20678;-78
2023/06/04 11:08:12;;;;;;;3.33;1.70;;;27.50;45.00;;;;;;5030389;28;20065;-78
2023/06/04 11:10:40;;;;;;;3.42;1.52;;;27.80;43.90;;;;;;5032372;28;20044;-78
2023/06/04 11:13:07;;;;;;;3.97;1.75;;;27.80;45.80;;;;;;5046068;28;20039;-79
2023/06/04 11:15:46;;;;;;;5.93;1.90;;;28.10;43.40;;;;;;5034056;28;20041;-79
2023/06/04 11:18:20;;;;;;;4.35;1.63;;;27.70;43.90;;;;;;5043142;28;20127;-78
2023/06/04 11:20:59;;;;;;;3.55;1.65;;;27.70;45.50;;;;;;5075215;28;20063;-79
2023/06/04 11:23:24;;;;;;;3.83;1.63;;;28.10;44.10;;;;;;5042613;28;20042;-78
2023/06/04 11:25:52;;;;;;;3.03;1.40;;;28.30;43.20;;;;;;5034378;28;20409;-78
2023/06/04 11:28:18;;;;;;;4.78;1.90;;;27.90;45.00;;;;;;5030841;28;20610;-78
2023/06/04 11:31:08;;;;;;;2.95;1.40;;;28.00;48.10;;;;;;5031000;28;20051;-78
2023/06/04 11:33:47;;;;;;;4.47;1.67;;;28.60;44.70;;;;;;5055835;28;20047;-78
2023/06/04 11:36:25;;;;;;;6.90;1.45;;;28.70;42.80;;;;;;5053114;28;20036;-78
2023/06/04 11:38:58;;;;;;;6.70;1.67;;;28.60;46.10;;;;;;5028367;28;20043;-79
2023/06/04 11:41:27;;;;;;;10.02;1.90;;;29.00;42.40;;;;;;5055726;28;20127;-78
2023/06/04 11:43:52;;;;;;;3.63;1.60;;;28.40;43.70;;;;;;5043602;28;20398;-78
2023/06/04 11:46:20;;;;;;;19.40;2.80;;;28.10;44.50;;;;;;5042105;28;20045;-79
2023/06/04 11:48:45;;;;;;;3.03;1.60;;;28.20;44.40;;;;;;5050809;28;20087;-79
2023/06/04 11:51:12;;;;;;;4.95;1.65;;;28.20;42.90;;;;;;5031627;28;20675;-79
2023/06/04 11:53:39;;;;;;;5.15;1.60;;;27.90;43.00;;;;;;5042428;28;20593;-78
2023/06/04 11:56:05;;;;;;;17.88;2.67;;;27.70;44.70;;;;;;5035573;28;20033;-78
2023/06/04 11:58:32;;;;;;;6.00;1.60;;;27.80;45.30;;;;;;5029650;28;20033;-78
2023/06/04 12:00:58;;;;;;;3.17;1.60;;;28.10;44.10;;;;;;5043721;28;20101;-78
2023/06/04 12:03:37;;;;;;;2.85;1.67;;;27.90;46.40;;;;;;5029529;28;20503;-78
2023/06/04 12:06:21;;;;;;;3.42;1.80;;;28.00;45.80;;;;;;5045771;28;20566;-78
2023/06/04 12:08:53;;;;;;;3.05;1.70;;;28.50;44.80;;;;;;5054544;28;20028;-78
2023/06/04 12:11:33;;;;;;;3.40;1.58;;;28.90;41.80;;;;;;5054678;28;20405;-78
2023/06/04 12:14:15;;;;;;;5.47;1.60;;;28.60;42.10;;;;;;5035634;28;20072;-78
2023/06/04 12:16:41;;;;;;;3.97;1.50;;;28.20;44.50;;;;;;5032333;28;20033;-79
2023/06/04 12:19:11;;;;;;;12.70;2.13;;;28.40;42.90;;;;;;5048489;28;20489;-79
2023/06/04 12:21:38;;;;;;;4.22;1.80;;;28.20;45.00;;;;;;5037823;28;20060;-78
2023/06/04 12:24:14;;;;;;;1.95;1.50;;;28.40;44.70;;;;;;5040789;28;20124;-78
2023/06/04 12:26:43;;;;;;;5.32;1.85;;;28.90;43.20;;;;;;5035510;28;20066;-79
2023/06/04 12:29:16;;;;;;;4.05;1.60;;;29.00;43.90;;;;;;5049064;28;20126;-78
2023/06/04 12:31:45;;;;;;;3.53;1.85;;;29.00;41.30;;;;;;5057265;28;20141;-78
2023/06/04 12:34:11;;;;;;;4.45;1.63;;;28.30;42.10;;;;;;5059643;28;20043;-78
2023/06/04 12:36:38;;;;;;;4.72;1.83;;;27.80;44.50;;;;;;5032167;28;20036;-79
2023/06/04 12:39:07;;;;;;;2.70;1.50;;;27.90;42.10;;;;;;5037113;28;20123;-79
2023/06/04 12:41:33;;;;;;;3.55;1.60;;;27.60;42.90;;;;;;5037316;28;20044;-78
2023/06/04 12:44:01;;;;;;;3.30;1.42;;;27.50;42.10;;;;;;5039612;28;20424;-78
2023/06/04 12:46:27;;;;;;;4.38;1.70;;;27.10;43.00;;;;;;5038160;28;20118;-78
2023/06/04 12:48:54;;;;;;;3.85;1.80;;;27.00;43.70;;;;;;5055081;28;20041;-79
2023/06/04 12:51:20;;;;;;;4.03;2.00;;;27.00;42.90;;;;;;5067854;28;20040;-79
2023/06/04 12:53:47;;;;;;;3.45;1.80;;;26.90;42.30;;;;;;5031454;28;20033;-78